createdAt,value
2022-11-24T00:00:18.583Z,4.35
2022-11-24T00:01:30.986Z,7.05
2022-11-24T00:02:42.491Z,4.25
2022-11-24T00:03:55.422Z,2.05
2022-11-24T00:05:07.372Z,4.85
2022-11-24T00:06:18.914Z,6.05
2022-11-24T00:07:30.403Z,3.67
2022-11-24T00:08:43.247Z,1.73
2022-11-24T00:09:54.702Z,5.18
2022-11-24T00:11:07.154Z,2.70
2022-11-24T00:12:18.617Z,5.22
2022-11-24T00:13:30.054Z,4.28
2022-11-24T00:14:41.598Z,2.33
2022-11-24T00:15:53.094Z,3.92
2022-11-24T00:17:04.626Z,4.70
2022-11-24T00:18:16.125Z,4.97
2022-11-24T00:19:27.613Z,3.55
2022-11-24T00:20:39.074Z,5.70
2022-11-24T00:21:50.560Z,6.40
2022-11-24T00:23:02.018Z,2.45
2022-11-24T00:24:13.479Z,5.95
2022-11-24T00:25:24.937Z,1.63
2022-11-24T00:26:39.906Z,2.05
2022-11-24T00:27:52.318Z,4.78
2022-11-24T00:29:04.703Z,3.17
2022-11-24T00:30:16.270Z,2.45
2022-11-24T00:31:29.268Z,4.15
2022-11-24T00:32:40.791Z,5.90
2022-11-24T00:33:53.597Z,4.15
2022-11-24T00:35:05.370Z,2.58
2022-11-24T00:36:17.430Z,2.67
2022-11-24T00:37:28.912Z,6.57
2022-11-24T00:38:40.513Z,5.78
2022-11-24T00:39:51.974Z,5.03
2022-11-24T00:41:03.483Z,3.70
2022-11-24T00:42:14.997Z,4.22
2022-11-24T00:43:26.461Z,6.45
2022-11-24T00:44:37.902Z,6.35
2022-11-24T00:45:49.497Z,8.52
2022-11-24T00:47:01.119Z,7.97
2022-11-24T00:48:12.670Z,16.77
2022-11-24T00:49:24.147Z,7.65
2022-11-24T00:50:35.644Z,8.50
2022-11-24T00:51:47.087Z,5.30
2022-11-24T00:52:58.551Z,6.65
2022-11-24T00:54:10.034Z,4.40
2022-11-24T00:55:21.637Z,4.15
2022-11-24T00:56:33.559Z,4.95
2022-11-24T00:57:45.041Z,5.45
2022-11-24T00:58:56.677Z,1.50
2022-11-24T01:00:08.454Z,4.15
2022-11-24T01:01:21.514Z,6.28
2022-11-24T01:02:33.114Z,5.53
2022-11-24T01:03:45.146Z,4.03
2022-11-24T01:04:56.611Z,6.72
2022-11-24T01:06:28.319Z,6.53
2022-11-24T01:07:39.811Z,7.00
2022-11-24T01:08:51.634Z,5.07
2022-11-24T01:10:03.735Z,9.88
2022-11-24T01:11:17.544Z,7.15
2022-11-24T01:12:28.997Z,5.97
2022-11-24T01:13:41.397Z,6.75
2022-11-24T01:14:52.870Z,5.70
2022-11-24T01:16:04.435Z,4.00
2022-11-24T01:17:16.024Z,5.55
2022-11-24T01:18:27.501Z,5.50
2022-11-24T01:19:38.978Z,6.10
2022-11-24T01:20:50.439Z,6.65
2022-11-24T01:22:01.917Z,7.68
2022-11-24T01:23:13.390Z,7.60
2022-11-24T01:24:25.249Z,8.20
2022-11-24T01:25:39.350Z,7.80
2022-11-24T01:26:50.876Z,7.43
2022-11-24T01:28:02.355Z,5.25
2022-11-24T01:29:13.852Z,3.63
2022-11-24T01:30:25.329Z,4.28
2022-11-24T01:31:37.103Z,6.70
2022-11-24T01:32:48.555Z,6.22
2022-11-24T01:34:00.011Z,3.72
2022-11-24T01:35:11.454Z,5.68
2022-11-24T01:36:22.988Z,5.30
2022-11-24T01:37:34.464Z,2.85
2022-11-24T01:38:46.029Z,2.35
2022-11-24T01:39:57.513Z,2.40
2022-11-24T01:41:13.280Z,3.83
2022-11-24T01:42:25.072Z,3.70
2022-11-24T01:43:36.962Z,2.25
2022-11-24T01:44:48.935Z,4.05
2022-11-24T01:46:19.238Z,6.20
2022-11-24T01:47:36.426Z,3.83
2022-11-24T01:49:08.227Z,6.38
2022-11-24T01:50:19.992Z,3.47
2022-11-24T01:51:34.618Z,2.35
2022-11-24T01:52:49.197Z,2.97
2022-11-24T01:54:20.963Z,4.57
2022-11-24T01:55:34.928Z,14.90
2022-11-24T01:56:48.408Z,6.82
2022-11-24T01:58:03.134Z,2.03
2022-11-24T01:59:15.918Z,5.13
2022-11-24T02:00:27.536Z,5.55
2022-11-24T02:01:39.119Z,5.45
2022-11-24T02:02:50.997Z,3.97
2022-11-24T02:04:04.466Z,5.43
2022-11-24T02:05:21.411Z,2.65
2022-11-24T02:06:33.934Z,5.38
2022-11-24T02:07:45.697Z,6.32
2022-11-24T02:08:57.212Z,3.50
2022-11-24T02:10:10.606Z,6.65
2022-11-24T02:11:23.125Z,5.45
2022-11-24T02:12:35.473Z,4.20
2022-11-24T02:13:47.961Z,3.78
2022-11-24T02:14:59.576Z,9.20
2022-11-24T02:16:11.812Z,7.70
2022-11-24T02:17:23.329Z,5.05
2022-11-24T02:18:34.855Z,4.35
2022-11-24T02:19:53.753Z,4.38
2022-11-24T02:21:05.978Z,5.95
2022-11-24T02:22:29.550Z,8.93
2022-11-24T02:23:44.037Z,7.70
2022-11-24T02:25:04.646Z,6.25
2022-11-24T02:26:16.097Z,7.07
2022-11-24T02:27:27.622Z,10.70
2022-11-24T02:28:39.150Z,5.55
2022-11-24T02:29:50.709Z,6.85
2022-11-24T02:31:02.423Z,6.35
2022-11-24T02:32:14.661Z,6.20
2022-11-24T02:33:26.526Z,3.30
2022-11-24T02:34:38.301Z,5.50
2022-11-24T02:35:49.824Z,9.32
2022-11-24T02:37:01.281Z,6.00
2022-11-24T02:38:15.921Z,8.95
2022-11-24T02:39:27.422Z,5.75
2022-11-24T02:40:39.865Z,5.60
2022-11-24T02:41:59.544Z,3.90
2022-11-24T02:43:13.187Z,5.57
2022-11-24T02:44:27.023Z,5.38
2022-11-24T02:45:38.476Z,3.88
2022-11-24T02:46:49.945Z,4.82
2022-11-24T02:48:01.500Z,5.03
2022-11-24T02:49:12.949Z,8.25
2022-11-24T02:50:24.649Z,8.10
2022-11-24T02:51:36.130Z,8.20
2022-11-24T02:52:47.575Z,7.78
2022-11-24T02:53:59.040Z,6.88
2022-11-24T02:55:10.515Z,7.15
2022-11-24T02:56:21.975Z,11.35
2022-11-24T02:57:33.453Z,5.78
2022-11-24T02:58:44.914Z,5.38
2022-11-24T02:59:56.595Z,6.93
2022-11-24T03:01:08.788Z,5.68
2022-11-24T03:02:20.312Z,6.18
2022-11-24T03:03:31.903Z,9.15
2022-11-24T03:04:44.856Z,6.45
2022-11-24T03:05:56.371Z,5.30
2022-11-24T03:07:07.872Z,10.45
2022-11-24T03:08:19.630Z,7.97
2022-11-24T03:09:31.605Z,8.32
2022-11-24T03:10:43.085Z,6.78
2022-11-24T03:11:54.560Z,10.07
2022-11-24T03:13:06.189Z,6.13
2022-11-24T03:14:17.653Z,7.43
2022-11-24T03:15:29.163Z,6.85
2022-11-24T03:16:40.620Z,6.60
2022-11-24T03:17:54.392Z,6.05
2022-11-24T03:19:05.829Z,8.77
2022-11-24T03:20:17.421Z,9.48
2022-11-24T03:21:28.968Z,9.45
2022-11-24T03:22:40.677Z,12.05
2022-11-24T03:23:52.978Z,6.95
2022-11-24T03:25:05.051Z,7.28
2022-11-24T03:26:17.741Z,5.25
2022-11-24T03:27:30.283Z,7.93
2022-11-24T03:28:42.059Z,4.90
2022-11-24T03:29:53.514Z,8.18
2022-11-24T03:31:05.421Z,7.82
2022-11-24T03:32:17.022Z,6.30
2022-11-24T03:33:28.543Z,7.90
2022-11-24T03:34:40.019Z,5.68
2022-11-24T03:35:51.633Z,7.28
2022-11-24T03:37:03.115Z,8.80
2022-11-24T03:38:14.607Z,5.68
2022-11-24T03:39:26.120Z,5.32
2022-11-24T03:40:37.610Z,6.75
2022-11-24T03:41:51.422Z,7.57
2022-11-24T03:43:02.922Z,7.93
2022-11-24T03:44:14.392Z,4.15
2022-11-24T03:46:57.314Z,3.83
2022-11-24T03:48:08.795Z,8.65
2022-11-24T03:49:20.279Z,3.88
2022-11-24T03:50:31.750Z,9.40
2022-11-24T03:51:43.217Z,5.60
2022-11-24T03:52:54.685Z,7.85
2022-11-24T03:54:06.791Z,5.07
2022-11-24T03:55:18.295Z,6.93
2022-11-24T03:56:29.773Z,9.85
2022-11-24T03:57:41.232Z,11.93
2022-11-24T03:58:52.861Z,8.00
2022-11-24T04:00:06.618Z,10.55
2022-11-24T04:01:18.524Z,10.65
2022-11-24T04:02:30.060Z,12.07
2022-11-24T04:03:41.559Z,15.27
2022-11-24T04:04:53.033Z,17.70
2022-11-24T04:06:04.527Z,17.50
2022-11-24T04:07:16.585Z,21.00
2022-11-24T04:08:28.106Z,21.60
2022-11-24T04:09:39.546Z,20.58
2022-11-24T04:10:52.424Z,17.75
2022-11-24T04:12:22.389Z,41.17
2022-11-24T04:13:33.879Z,24.90
2022-11-24T04:14:45.321Z,11.73
2022-11-24T04:15:56.784Z,7.20
2022-11-24T04:17:08.300Z,5.38
2022-11-24T04:18:20.681Z,7.72
2022-11-24T04:19:32.098Z,5.32
2022-11-24T04:20:43.633Z,6.97
2022-11-24T04:21:55.069Z,8.10
2022-11-24T04:23:06.571Z,13.10
2022-11-24T04:24:18.045Z,7.85
2022-11-24T04:25:29.477Z,5.47
2022-11-24T04:26:40.885Z,5.97
2022-11-24T04:27:53.195Z,5.85
2022-11-24T04:29:04.629Z,6.82
2022-11-24T04:30:16.179Z,3.08
2022-11-24T04:31:27.605Z,4.15
2022-11-24T04:32:39.039Z,5.90
2022-11-24T04:33:50.514Z,4.55
2022-11-24T04:35:01.917Z,3.15
2022-11-24T04:36:13.348Z,4.70
2022-11-24T04:37:24.837Z,15.95
2022-11-24T04:39:24.035Z,8.52
2022-11-24T04:40:08.559Z,8.50
2022-11-24T04:41:20.148Z,8.00
2022-11-24T04:42:31.599Z,8.65
2022-11-24T04:43:43.009Z,8.77
2022-11-24T04:44:54.429Z,10.40
2022-11-24T04:46:05.957Z,10.10
2022-11-24T04:47:19.721Z,36.40
2022-11-24T04:48:31.146Z,23.17
2022-11-24T04:49:42.558Z,12.77
2022-11-24T04:50:54.634Z,8.13
2022-11-24T04:52:06.074Z,9.05
2022-11-24T04:53:17.501Z,6.80
2022-11-24T04:54:28.909Z,4.65
2022-11-24T04:55:40.551Z,4.45
2022-11-24T04:56:52.337Z,9.35
2022-11-24T04:58:03.747Z,10.80
2022-11-24T04:59:15.573Z,12.20
2022-11-24T05:00:27.186Z,9.27
2022-11-24T05:01:38.768Z,13.38
2022-11-24T05:02:50.268Z,11.75
2022-11-24T05:04:01.760Z,12.20
2022-11-24T05:05:13.353Z,8.43
2022-11-24T05:06:25.215Z,9.05
2022-11-24T05:07:36.857Z,8.93
2022-11-24T05:08:48.887Z,7.85
2022-11-24T05:10:26.694Z,7.57
2022-11-24T05:11:38.165Z,9.85
2022-11-24T05:12:56.869Z,13.15
2022-11-24T05:14:08.333Z,8.50
2022-11-24T05:15:19.736Z,12.95
2022-11-24T05:16:31.252Z,20.88
2022-11-24T05:17:42.763Z,18.77
2022-11-24T05:18:54.181Z,34.92
2022-11-24T05:20:06.798Z,58.78
2022-11-24T05:21:18.212Z,81.72
2022-11-24T05:22:29.733Z,77.70
2022-11-24T05:23:41.221Z,89.25
2022-11-24T05:24:52.894Z,39.17
2022-11-24T05:26:04.768Z,48.67
2022-11-24T05:27:16.275Z,47.95
2022-11-24T05:28:28.144Z,27.83
2022-11-24T05:29:39.558Z,26.33
2022-11-24T05:30:51.023Z,15.60
2022-11-24T05:32:03.029Z,12.48
2022-11-24T05:33:19.017Z,12.38
2022-11-24T05:34:33.581Z,13.95
2022-11-24T05:35:45.692Z,22.27
2022-11-24T05:37:02.930Z,22.25
2022-11-24T05:38:14.484Z,14.10
2022-11-24T05:39:25.920Z,17.70
2022-11-24T05:40:37.917Z,22.80
2022-11-24T05:41:49.399Z,23.63
2022-11-24T05:43:00.908Z,16.02
2022-11-24T05:44:12.321Z,13.82
2022-11-24T05:45:23.822Z,19.77
2022-11-24T05:46:35.290Z,14.13
2022-11-24T05:47:47.175Z,13.45
2022-11-24T05:48:58.665Z,23.35
2022-11-24T05:50:11.442Z,15.43
2022-11-24T05:51:22.884Z,7.60
2022-11-24T05:52:34.810Z,7.68
2022-11-24T05:53:46.279Z,12.77
2022-11-24T05:54:57.768Z,14.77
2022-11-24T05:56:09.252Z,6.38
2022-11-24T05:57:20.696Z,9.73
2022-11-24T05:58:32.111Z,8.32
2022-11-24T05:59:43.777Z,14.38
2022-11-24T06:00:55.193Z,10.75
2022-11-24T06:02:06.816Z,8.60
2022-11-24T06:03:18.404Z,8.85
2022-11-24T06:04:29.911Z,13.88
2022-11-24T06:05:45.489Z,14.52
2022-11-24T06:06:57.005Z,18.00
2022-11-24T06:08:08.510Z,29.92
2022-11-24T06:09:20.012Z,25.63
2022-11-24T06:10:31.541Z,23.65
2022-11-24T06:11:43.303Z,38.92
2022-11-24T06:12:54.805Z,36.97
2022-11-24T06:14:10.968Z,29.85
2022-11-24T06:15:22.890Z,34.47
2022-11-24T06:16:34.435Z,38.75
2022-11-24T06:17:52.260Z,23.33
2022-11-24T06:19:03.689Z,47.60
2022-11-24T06:20:15.285Z,30.08
2022-11-24T06:21:26.794Z,36.92
2022-11-24T06:22:38.305Z,51.05
2022-11-24T06:23:49.800Z,63.60
2022-11-24T06:25:01.227Z,38.83
2022-11-24T06:26:12.705Z,45.78
2022-11-24T06:27:24.609Z,40.20
2022-11-24T06:28:36.293Z,57.95
2022-11-24T06:29:47.776Z,29.90
2022-11-24T06:31:03.139Z,29.67
2022-11-24T06:32:14.605Z,29.33
2022-11-24T06:33:26.504Z,36.58
2022-11-24T06:34:37.942Z,25.58
2022-11-24T06:35:49.392Z,25.30
2022-11-24T06:37:01.112Z,51.22
2022-11-24T06:38:12.569Z,36.88
2022-11-24T06:39:23.993Z,47.08
2022-11-24T06:40:35.471Z,32.40
2022-11-24T06:41:49.454Z,33.13
2022-11-24T06:43:00.947Z,34.00
2022-11-24T06:44:12.379Z,37.25
2022-11-24T06:45:23.895Z,51.58
2022-11-24T06:46:35.561Z,49.63
2022-11-24T06:47:47.096Z,33.25
2022-11-24T06:48:59.928Z,28.15
2022-11-24T06:50:11.370Z,27.02
2022-11-24T06:51:23.074Z,20.08
2022-11-24T06:52:34.481Z,13.30
2022-11-24T06:53:46.147Z,23.13
2022-11-24T06:54:57.768Z,19.00
2022-11-24T06:56:15.630Z,19.58
2022-11-24T06:57:29.778Z,13.15
2022-11-24T06:58:42.550Z,30.88
2022-11-24T06:59:54.084Z,40.85
2022-11-24T07:01:05.640Z,25.85
2022-11-24T07:02:17.159Z,17.38
2022-11-24T07:03:28.688Z,27.10
2022-11-24T07:04:40.188Z,15.25
2022-11-24T07:05:58.339Z,37.80
2022-11-24T07:07:09.829Z,23.55
2022-11-24T07:08:21.298Z,17.83
2022-11-24T07:09:32.800Z,26.63
2022-11-24T07:10:44.258Z,33.60
2022-11-24T07:11:56.619Z,31.55
2022-11-24T07:13:08.547Z,39.13
2022-11-24T07:14:19.960Z,48.92
2022-11-24T07:15:31.403Z,46.47
2022-11-24T07:16:42.855Z,31.10
2022-11-24T07:17:54.363Z,21.98
2022-11-24T07:19:05.877Z,50.88
2022-11-24T07:20:17.389Z,21.08
2022-11-24T07:21:29.324Z,18.88
2022-11-24T07:22:40.820Z,18.38
2022-11-24T07:23:53.048Z,17.33
2022-11-24T07:25:07.453Z,20.02
2022-11-24T07:26:19.318Z,18.10
2022-11-24T07:27:31.033Z,27.42
2022-11-24T07:28:43.669Z,19.15
2022-11-24T07:29:55.101Z,17.50
2022-11-24T07:31:11.284Z,13.45
2022-11-24T07:32:22.776Z,15.57
2022-11-24T07:33:36.106Z,17.00
2022-11-24T07:34:47.576Z,13.88
2022-11-24T07:36:02.617Z,8.15
2022-11-24T07:37:14.058Z,7.70
2022-11-24T07:38:25.524Z,11.20
2022-11-24T07:39:36.969Z,14.52
2022-11-24T07:40:48.441Z,16.02
2022-11-24T07:42:00.478Z,13.18
2022-11-24T07:43:17.144Z,17.05
2022-11-24T08:00:14.916Z,10.35
2022-11-24T08:01:26.465Z,6.88
2022-11-24T08:02:37.986Z,7.32
2022-11-24T08:03:49.573Z,6.15
2022-11-24T08:05:01.052Z,5.13
2022-11-24T08:06:35.423Z,7.28
2022-11-24T08:07:44.492Z,5.25
2022-11-24T08:08:56.387Z,7.28
2022-11-24T08:10:08.142Z,10.00
2022-11-24T08:11:19.688Z,7.28
2022-11-24T08:12:31.479Z,8.90
2022-11-24T08:13:43.253Z,5.75
2022-11-24T08:14:54.693Z,9.05
2022-11-24T08:16:10.808Z,10.15
2022-11-24T08:17:22.370Z,7.13
2022-11-24T08:18:34.361Z,8.00
2022-11-24T08:19:45.867Z,4.30
2022-11-24T08:21:00.450Z,8.57
2022-11-24T08:22:12.085Z,6.93
2022-11-24T08:23:23.517Z,7.95
2022-11-24T08:24:35.232Z,4.53
2022-11-24T08:25:46.917Z,6.63
2022-11-24T08:26:58.449Z,8.18
2022-11-24T08:28:09.890Z,8.75
2022-11-24T08:29:21.369Z,9.88
2022-11-24T08:30:32.896Z,8.10
2022-11-24T08:31:44.406Z,9.23
2022-11-24T08:32:56.354Z,13.93
2022-11-24T08:34:07.828Z,9.52
2022-11-24T08:35:19.303Z,11.52
2022-11-24T08:36:31.078Z,6.88
2022-11-24T08:37:42.530Z,10.50
2022-11-24T08:38:54.923Z,11.02
2022-11-24T08:40:06.744Z,10.45
2022-11-24T08:41:18.264Z,9.60
2022-11-24T08:42:29.700Z,13.38
2022-11-24T08:43:41.223Z,12.70
2022-11-24T08:44:58.810Z,10.60
2022-11-24T08:46:14.553Z,9.95
2022-11-24T08:47:26.038Z,11.88
2022-11-24T08:48:37.487Z,11.65
2022-11-24T08:49:48.964Z,17.45
2022-11-24T08:51:05.734Z,28.45
2022-11-24T08:52:17.259Z,7.95
2022-11-24T08:53:28.699Z,9.82
2022-11-24T08:54:40.948Z,10.65
2022-11-24T08:55:52.407Z,12.73
2022-11-24T08:57:04.071Z,10.13
2022-11-24T08:58:16.563Z,7.32
2022-11-24T08:59:28.135Z,10.50
2022-11-24T09:00:39.664Z,12.98
2022-11-24T09:01:51.209Z,11.45
2022-11-24T09:03:02.827Z,12.65
2022-11-24T09:04:14.333Z,9.20
2022-11-24T09:05:50.731Z,6.28
2022-11-24T09:06:57.948Z,13.43
2022-11-24T09:08:09.438Z,11.05
2022-11-24T09:09:20.886Z,7.72
2022-11-24T09:10:32.316Z,6.38
2022-11-24T09:11:44.015Z,8.77
2022-11-24T09:12:55.541Z,8.43
2022-11-24T09:14:07.254Z,11.85
2022-11-24T09:15:20.379Z,9.38
2022-11-24T09:16:31.972Z,7.10
2022-11-24T09:17:43.855Z,6.95
2022-11-24T09:18:56.229Z,12.40
2022-11-24T09:20:07.838Z,10.27
2022-11-24T09:21:20.124Z,6.00
2022-11-24T09:22:31.709Z,7.25
2022-11-24T09:23:43.526Z,6.97
2022-11-24T09:24:54.996Z,7.10
2022-11-24T09:26:07.291Z,6.75
2022-11-24T09:27:18.697Z,6.15
2022-11-24T09:28:30.195Z,7.88
2022-11-24T09:29:41.666Z,9.32
2022-11-24T09:30:53.158Z,9.75
2022-11-24T09:32:06.990Z,6.07
2022-11-24T09:33:18.658Z,9.27
2022-11-24T09:34:30.381Z,7.97
2022-11-24T09:35:41.959Z,5.53
2022-11-24T09:36:53.432Z,4.55
2022-11-24T09:38:05.685Z,5.93
2022-11-24T09:39:17.175Z,5.82
2022-11-24T09:40:28.662Z,6.13
2022-11-24T09:41:50.379Z,5.22
2022-11-24T09:43:40.466Z,5.03
2022-11-24T09:44:54.885Z,7.07
2022-11-24T09:46:06.723Z,5.07
2022-11-24T09:47:24.846Z,9.75
2022-11-24T09:48:41.254Z,4.45
2022-11-24T09:49:52.798Z,5.63
2022-11-24T09:51:04.818Z,8.23
2022-11-24T09:52:19.034Z,18.23
2022-11-24T09:53:44.659Z,4.47
2022-11-24T09:55:00.333Z,5.32
2022-11-24T09:56:11.770Z,8.35
2022-11-24T09:57:24.916Z,4.97
2022-11-24T09:58:45.146Z,6.13
2022-11-24T10:00:01.628Z,7.38
2022-11-24T10:01:16.020Z,7.63
2022-11-24T10:02:27.668Z,9.38
2022-11-24T10:03:46.195Z,8.77
2022-11-24T10:04:57.737Z,4.38
2022-11-24T10:06:23.843Z,7.40
2022-11-24T10:07:39.826Z,6.13
2022-11-24T10:08:51.295Z,6.53
2022-11-24T10:10:19.760Z,7.07
2022-11-24T10:11:53.006Z,3.78
2022-11-24T10:13:23.181Z,5.18
2022-11-24T10:14:37.743Z,6.35
2022-11-24T10:16:15.066Z,6.85
2022-11-24T10:17:38.311Z,5.45
2022-11-24T10:19:14.528Z,6.22
2022-11-24T10:20:55.018Z,5.07
2022-11-24T10:22:17.176Z,4.60
2022-11-24T10:23:39.822Z,6.28
2022-11-24T10:24:54.474Z,7.13
2022-11-24T10:26:08.377Z,4.82
2022-11-24T10:27:23.757Z,5.38
2022-11-24T10:28:45.207Z,6.72
2022-11-24T10:29:57.170Z,6.43
2022-11-24T10:31:37.838Z,6.88
2022-11-24T10:32:54.213Z,4.47
2022-11-24T10:34:21.237Z,7.85
2022-11-24T10:35:38.028Z,5.20
2022-11-24T10:36:56.167Z,9.32
2022-11-24T10:38:16.425Z,6.13
2022-11-24T10:39:32.547Z,7.95
2022-11-24T10:41:05.333Z,4.32
2022-11-24T10:42:36.992Z,7.10
2022-11-24T10:43:48.483Z,27.67
2022-11-24T10:45:13.595Z,10.27
2022-11-24T10:46:27.262Z,4.75
2022-11-24T10:47:39.348Z,4.30
2022-11-24T10:48:53.147Z,5.10
2022-11-24T10:50:10.568Z,6.72
2022-11-24T10:51:25.138Z,5.78
2022-11-24T10:52:55.348Z,8.65
2022-11-24T10:54:18.218Z,6.75
2022-11-24T10:55:48.483Z,11.98
2022-11-24T10:56:59.937Z,11.50
2022-11-24T10:58:17.473Z,8.85
2022-11-24T10:59:28.962Z,9.60
2022-11-24T11:00:40.491Z,9.35
2022-11-24T11:01:52.513Z,8.57
2022-11-24T11:03:12.027Z,8.65
2022-11-24T11:04:34.134Z,8.23
2022-11-24T11:05:50.380Z,5.63
2022-11-24T11:07:28.280Z,4.40
2022-11-24T11:08:40.189Z,5.68
2022-11-24T11:10:11.621Z,5.10
2022-11-24T11:11:27.509Z,3.55
2022-11-24T11:12:46.144Z,4.15
2022-11-24T11:14:03.997Z,6.00
2022-11-24T11:15:21.488Z,11.20
2022-11-24T11:16:35.429Z,8.80
2022-11-24T11:17:47.045Z,10.07
2022-11-24T11:18:58.564Z,7.68
2022-11-24T11:20:21.821Z,7.25
2022-11-24T11:21:34.776Z,7.30
2022-11-24T11:22:48.035Z,9.35
2022-11-24T11:24:00.500Z,7.13
2022-11-24T11:25:14.738Z,5.28
2022-11-24T11:26:27.613Z,5.80
2022-11-24T11:27:40.508Z,4.45
2022-11-24T11:31:15.582Z,5.40
2022-11-24T11:34:04.673Z,5.38
2022-11-24T11:35:18.786Z,11.90
2022-11-24T11:36:31.865Z,9.95
2022-11-24T11:37:44.143Z,8.88
2022-11-24T11:38:55.779Z,4.30
2022-11-24T11:40:14.223Z,7.88
2022-11-24T11:41:28.978Z,9.02
2022-11-24T11:43:08.057Z,4.82
2022-11-24T11:44:32.591Z,11.07
2022-11-24T11:45:45.753Z,4.82
2022-11-24T11:46:58.954Z,6.85
2022-11-24T11:48:22.752Z,5.20
2022-11-24T11:49:37.115Z,5.43
2022-11-24T11:52:31.975Z,8.13
2022-11-24T11:53:48.386Z,4.35
2022-11-24T11:55:14.819Z,8.82
2022-11-24T11:56:26.340Z,6.05
2022-11-24T11:57:46.822Z,6.47
2022-11-24T11:58:58.250Z,9.13
2022-11-24T12:00:17.709Z,12.60
2022-11-24T12:01:48.041Z,11.52
2022-11-24T12:02:59.576Z,4.97
2022-11-24T12:04:29.756Z,5.07
2022-11-24T12:05:41.225Z,9.10
2022-11-24T12:06:55.553Z,6.90
2022-11-24T12:08:25.569Z,11.60
2022-11-24T12:09:41.462Z,9.10
2022-11-24T12:11:00.607Z,17.40
2022-11-24T12:12:18.030Z,12.32
2022-11-24T12:13:41.712Z,7.10
2022-11-24T12:14:56.238Z,8.00
2022-11-24T12:16:13.754Z,6.47
2022-11-24T12:17:25.241Z,6.55
2022-11-24T12:18:57.100Z,4.03
2022-11-24T12:20:15.441Z,4.97
2022-11-24T12:21:34.412Z,8.40
2022-11-24T12:22:49.478Z,9.75
2022-11-24T12:24:20.064Z,4.55
2022-11-24T12:25:50.246Z,5.55
2022-11-24T12:27:06.384Z,3.72
2022-11-24T12:28:28.240Z,7.13
2022-11-24T12:29:54.281Z,6.97
2022-11-24T12:31:06.873Z,7.40
2022-11-24T12:32:27.054Z,4.85
2022-11-24T12:33:38.693Z,4.43
2022-11-24T12:34:56.289Z,4.45
2022-11-24T12:36:25.599Z,3.45
2022-11-24T12:37:46.046Z,5.65
2022-11-24T12:39:02.483Z,5.18
2022-11-24T12:40:14.986Z,5.95
2022-11-24T12:41:46.694Z,8.85
2022-11-24T12:43:00.965Z,7.30
2022-11-24T12:44:27.619Z,8.27
2022-11-24T12:45:51.913Z,7.88
2022-11-24T12:47:09.140Z,18.42
2022-11-24T12:48:39.687Z,7.03
2022-11-24T12:49:51.532Z,7.80
2022-11-24T12:51:04.670Z,4.57
2022-11-24T12:52:37.573Z,6.28
2022-11-24T12:53:50.767Z,15.40
2022-11-24T12:55:02.975Z,118.68
2022-11-24T12:56:16.417Z,16.77
2022-11-24T12:57:30.654Z,35.42
2022-11-24T12:58:52.049Z,6.43
2022-11-24T13:00:08.254Z,8.35
2022-11-24T13:01:32.381Z,8.43
2022-11-24T13:03:02.720Z,6.25
2022-11-24T13:04:23.265Z,6.35
2022-11-24T13:05:51.074Z,5.00
2022-11-24T13:07:14.732Z,4.40
2022-11-24T13:08:27.361Z,4.05
2022-11-24T13:09:58.809Z,3.72
2022-11-24T13:11:22.522Z,4.25
2022-11-24T13:12:34.024Z,3.33
2022-11-24T13:14:02.650Z,4.17
2022-11-24T13:15:43.259Z,4.40
2022-11-24T13:17:21.661Z,2.88
2022-11-24T13:18:43.342Z,3.92
2022-11-24T13:20:13.446Z,1.20
2022-11-24T13:21:28.440Z,1.77
2022-11-24T13:22:39.931Z,2.38
2022-11-24T13:23:58.445Z,2.13
2022-11-24T13:25:20.381Z,2.28
2022-11-24T13:26:44.250Z,3.20
2022-11-24T13:27:57.915Z,3.60
2022-11-24T13:29:29.302Z,3.90
2022-11-24T13:30:44.069Z,11.02
2022-11-24T13:32:15.519Z,7.68
2022-11-24T13:33:28.997Z,3.70
2022-11-24T13:34:40.905Z,3.55
2022-11-24T13:36:04.661Z,3.22
2022-11-24T13:37:31.522Z,3.95
2022-11-24T13:38:47.071Z,4.30
2022-11-24T13:39:58.593Z,3.25
2022-11-24T13:41:28.079Z,6.03
2022-11-24T13:42:56.295Z,6.57
2022-11-24T13:44:13.743Z,2.95
2022-11-24T13:45:41.033Z,2.28
2022-11-24T13:47:06.355Z,2.10
2022-11-24T13:48:22.626Z,1.27
2022-11-24T13:49:38.303Z,3.05
2022-11-24T13:50:49.808Z,1.38
2022-11-24T13:52:21.193Z,5.80
2022-11-24T13:53:43.696Z,2.35
2022-11-24T13:54:55.205Z,3.53
2022-11-24T13:56:12.754Z,3.67
2022-11-24T13:57:33.367Z,4.50
2022-11-24T13:58:46.505Z,10.32
2022-11-24T14:00:01.608Z,5.57
2022-11-24T14:01:13.236Z,9.05
2022-11-24T14:02:24.749Z,10.43
2022-11-24T14:03:38.824Z,12.25
2022-11-24T14:04:50.484Z,8.80
2022-11-24T14:06:03.176Z,11.68
2022-11-24T14:07:15.273Z,10.27
2022-11-24T14:08:28.806Z,7.32
2022-11-24T14:09:44.859Z,6.63
2022-11-24T14:10:57.197Z,10.32
2022-11-24T14:12:19.419Z,11.27
2022-11-24T14:13:32.012Z,17.42
2022-11-24T14:14:44.520Z,20.42
2022-11-24T14:16:04.271Z,18.23
2022-11-24T14:17:15.835Z,20.83
2022-11-24T14:18:29.221Z,16.55
2022-11-24T14:19:41.650Z,11.93
2022-11-24T14:20:53.091Z,7.20
2022-11-24T14:22:04.639Z,4.25
2022-11-24T14:23:16.123Z,2.58
2022-11-24T14:24:32.768Z,10.43
2022-11-24T14:25:48.396Z,7.63
2022-11-24T14:27:01.128Z,2.78
2022-11-24T14:28:19.677Z,7.32
2022-11-24T14:29:33.250Z,7.47
2022-11-24T14:30:44.728Z,7.68
2022-11-24T14:32:00.351Z,9.95
2022-11-24T14:33:12.686Z,6.55
2022-11-24T14:34:29.353Z,7.00
2022-11-24T14:35:44.625Z,7.05
2022-11-24T14:36:56.990Z,4.15
2022-11-24T14:38:11.230Z,6.45
2022-11-24T14:39:23.693Z,10.43
2022-11-24T14:40:50.756Z,5.78
2022-11-24T14:42:03.846Z,5.35
2022-11-24T14:43:24.544Z,3.70
2022-11-24T14:44:41.816Z,7.88
2022-11-24T14:46:03.614Z,7.05
2022-11-24T14:47:18.662Z,5.18
2022-11-24T14:48:36.453Z,2.95
2022-11-24T14:49:48.122Z,2.20
2022-11-24T14:51:07.616Z,2.33
2022-11-24T14:52:20.450Z,7.28
2022-11-24T14:53:32.185Z,4.70
2022-11-24T14:54:59.008Z,6.53
2022-11-24T14:56:19.323Z,2.20
2022-11-24T14:57:35.227Z,2.47
2022-11-24T14:58:46.720Z,1.80
2022-11-24T15:00:04.391Z,5.90
2022-11-24T15:01:19.387Z,5.85
2022-11-24T15:02:41.480Z,7.00
2022-11-24T15:04:13.062Z,3.63
2022-11-24T15:05:48.554Z,2.65
2022-11-24T15:07:05.184Z,4.60
2022-11-24T15:08:16.715Z,11.57
2022-11-24T15:09:33.779Z,14.30
2022-11-24T15:10:45.479Z,13.93
2022-11-24T15:11:57.599Z,14.32
2022-11-24T15:13:20.125Z,7.63
2022-11-24T15:14:45.779Z,15.50
2022-11-24T15:16:30.265Z,6.82
2022-11-24T15:17:52.505Z,9.25
2022-11-24T15:19:04.124Z,6.70
2022-11-24T15:20:21.770Z,7.07
2022-11-24T15:21:34.149Z,7.68
2022-11-24T15:22:45.626Z,10.10
2022-11-24T15:24:17.047Z,9.40
2022-11-24T15:25:28.590Z,9.48
2022-11-24T15:26:42.215Z,11.07
2022-11-24T15:27:53.934Z,12.48
2022-11-24T15:29:05.611Z,8.27
2022-11-24T15:30:17.294Z,35.95
2022-11-24T15:31:29.081Z,25.80
2022-11-24T15:32:48.398Z,31.20
2022-11-24T15:33:59.933Z,13.98
2022-11-24T15:35:11.861Z,21.88
2022-11-24T15:36:23.327Z,18.30
2022-11-24T15:37:34.810Z,19.10
2022-11-24T15:38:46.356Z,18.83
2022-11-24T15:39:57.871Z,15.88
2022-11-24T15:41:20.487Z,18.42
2022-11-24T15:42:32.483Z,15.75
2022-11-24T15:43:44.177Z,11.75
2022-11-24T15:44:55.666Z,23.40
2022-11-24T15:46:08.678Z,22.83
2022-11-24T15:47:20.658Z,22.17
2022-11-24T15:48:32.520Z,14.40
2022-11-24T15:49:44.473Z,19.90
2022-11-24T15:50:56.687Z,24.33
2022-11-24T15:52:08.248Z,20.85
2022-11-24T15:53:24.450Z,30.33
2022-11-24T15:54:36.512Z,36.63
2022-11-24T15:55:48.830Z,41.88
2022-11-24T15:57:00.616Z,43.25
2022-11-24T15:58:13.468Z,23.02
2022-11-24T15:59:25.271Z,16.95
2022-11-24T16:00:37.898Z,10.25
2022-11-24T16:01:52.247Z,4.93
2022-11-24T16:03:24.033Z,2.90
2022-11-24T16:04:36.131Z,4.22
2022-11-24T16:05:48.661Z,5.90
2022-11-24T16:07:00.726Z,5.10
2022-11-24T16:08:13.482Z,3.95
2022-11-24T16:09:24.971Z,7.57
2022-11-24T16:10:36.591Z,9.05
2022-11-24T16:11:48.211Z,5.82
2022-11-24T16:12:59.677Z,2.92
2022-11-24T16:14:11.623Z,5.65
2022-11-24T16:15:25.369Z,2.78
2022-11-24T16:16:38.184Z,6.65
2022-11-24T16:17:50.357Z,4.35
2022-11-24T16:19:04.823Z,3.97
2022-11-24T16:20:16.399Z,2.38
2022-11-24T16:21:27.841Z,3.78
2022-11-24T16:22:39.399Z,2.92
2022-11-24T16:23:50.822Z,7.13
2022-11-24T16:25:04.192Z,5.57
2022-11-24T16:26:15.726Z,5.97
2022-11-24T16:27:27.274Z,4.50
2022-11-24T16:28:38.778Z,6.63
2022-11-24T16:29:50.283Z,17.58
2022-11-24T16:31:01.752Z,21.77
2022-11-24T16:32:13.224Z,13.52
2022-11-24T16:33:24.845Z,8.80
2022-11-24T16:34:36.720Z,5.05
2022-11-24T16:35:48.777Z,3.03
2022-11-24T16:37:01.456Z,4.20
2022-11-24T16:38:16.433Z,8.13
2022-11-24T16:39:27.899Z,4.40
2022-11-24T16:40:39.325Z,2.42
2022-11-24T16:41:50.899Z,2.58
2022-11-24T16:43:02.810Z,2.22
2022-11-24T16:44:14.436Z,2.38
2022-11-24T16:45:26.058Z,6.43